createdAt,value
2019-04-25T00:00:46.492Z,15.67
2019-04-25T00:02:48.286Z,15.61
2019-04-25T00:04:51.433Z,15.66
2019-04-25T00:06:53.343Z,15.55
2019-04-25T00:08:54.842Z,15.70
2019-04-25T00:10:56.223Z,15.72
2019-04-25T00:12:57.678Z,15.55
2019-04-25T00:14:59.160Z,15.48
2019-04-25T00:17:01.737Z,15.41
2019-04-25T00:19:03.275Z,15.38
2019-04-25T00:21:06.567Z,15.48
2019-04-25T00:23:12.730Z,15.45
2019-04-25T00:25:17.969Z,15.41
2019-04-25T00:27:19.512Z,15.41
2019-04-25T00:29:22.055Z,15.28
2019-04-25T00:31:25.964Z,15.23
2019-04-25T00:33:26.957Z,15.23
2019-04-25T00:35:28.335Z,15.06
2019-04-25T00:37:29.713Z,15.15
2019-04-25T00:39:32.017Z,15.19
2019-04-25T00:41:34.184Z,15.21
2019-04-25T00:43:35.687Z,15.18
2019-04-25T00:45:37.140Z,15.28
2019-04-25T00:47:38.514Z,15.32
2019-04-25T00:49:39.896Z,15.43
2019-04-25T00:51:42.837Z,15.41
2019-04-25T00:53:44.788Z,15.53
2019-04-25T00:55:46.472Z,15.81
2019-04-25T00:57:51.591Z,15.80
2019-04-25T01:00:11.776Z,15.85
2019-04-25T01:02:18.221Z,15.88
2019-04-25T01:04:21.846Z,16.15
2019-04-25T01:06:23.475Z,16.32
2019-04-25T01:08:24.892Z,16.20
2019-04-25T01:10:26.310Z,16.31
2019-04-25T01:12:27.886Z,16.35
2019-04-25T01:14:29.828Z,16.20
2019-04-25T01:16:31.835Z,16.19
2019-04-25T01:18:33.751Z,16.19
2019-04-25T01:20:35.381Z,16.18
2019-04-25T01:22:36.953Z,16.19
2019-04-25T01:24:38.423Z,16.28
2019-04-25T01:26:40.104Z,16.30
2019-04-25T01:28:41.686Z,16.19
2019-04-25T01:30:43.889Z,16.34
2019-04-25T01:32:46.700Z,16.34
2019-04-25T01:34:55.550Z,16.42
2019-04-25T01:36:58.161Z,16.29
2019-04-25T01:39:04.412Z,16.65
2019-04-25T01:41:14.591Z,16.77
2019-04-25T01:43:36.155Z,16.59
2019-04-25T01:45:37.776Z,16.35
2019-04-25T01:47:39.451Z,16.15
2019-04-25T01:49:41.166Z,16.00
2019-04-25T01:51:43.680Z,16.04
2019-04-25T01:53:45.226Z,16.23
2019-04-25T01:55:55.874Z,16.27
2019-04-25T01:57:50.909Z,16.16
2019-04-25T01:59:54.095Z,16.10
2019-04-25T02:01:56.714Z,16.13
2019-04-25T02:03:59.042Z,16.03
2019-04-25T02:06:00.754Z,16.05
2019-04-25T02:08:02.245Z,15.97
2019-04-25T02:10:05.759Z,15.91
2019-04-25T02:12:25.781Z,15.81
2019-04-25T02:14:27.248Z,15.81
2019-04-25T02:16:29.173Z,16.00
2019-04-25T02:18:30.542Z,16.03
2019-04-25T02:20:33.789Z,16.19
2019-04-25T02:22:35.660Z,16.20
2019-04-25T02:24:37.374Z,16.12
2019-04-25T02:26:38.744Z,16.16
2019-04-25T02:28:40.162Z,16.17
2019-04-25T02:30:41.538Z,16.19
2019-04-25T02:32:44.185Z,16.20
2019-04-25T02:34:45.823Z,16.14
2019-04-25T02:36:47.295Z,16.15
2019-04-25T02:38:48.714Z,16.11
2019-04-25T02:40:50.182Z,16.06
2019-04-25T02:42:54.189Z,16.15
2019-04-25T02:44:59.210Z,16.15
2019-04-25T02:47:03.314Z,16.14
2019-04-25T02:49:28.938Z,16.06
2019-04-25T02:51:24.151Z,15.93
2019-04-25T02:53:36.635Z,16.05
2019-04-25T02:55:37.656Z,15.87
2019-04-25T02:57:38.736Z,15.86
2019-04-25T02:59:40.136Z,16.00
2019-04-25T03:01:44.338Z,15.90
2019-04-25T03:03:45.241Z,15.87
2019-04-25T03:05:47.719Z,15.87
2019-04-25T03:07:49.532Z,15.79
2019-04-25T03:09:50.934Z,15.81
2019-04-25T03:11:54.650Z,15.71
2019-04-25T03:13:57.741Z,15.57
2019-04-25T03:16:00.585Z,15.67
2019-04-25T03:18:04.716Z,15.59
2019-04-25T03:20:11.168Z,15.41
2019-04-25T03:22:15.062Z,15.67
2019-04-25T03:24:16.943Z,15.54
2019-04-25T03:26:18.471Z,15.14
2019-04-25T03:28:19.842Z,15.20
2019-04-25T03:30:21.262Z,15.30
2019-04-25T03:32:27.908Z,15.35
2019-04-25T03:34:25.903Z,15.17
2019-04-25T03:36:27.303Z,14.91
2019-04-25T03:38:28.674Z,14.83
2019-04-25T03:40:30.092Z,14.77
2019-04-25T03:42:31.471Z,14.76
2019-04-25T03:44:33.776Z,14.72
2019-04-25T03:46:35.258Z,14.56
2019-04-25T03:48:37.206Z,14.69
2019-04-25T03:50:38.657Z,14.62
2019-04-25T03:52:40.172Z,14.54
2019-04-25T03:54:43.360Z,14.49
2019-04-25T03:56:53.580Z,14.56
2019-04-25T03:58:48.287Z,14.59
2019-04-25T04:00:49.693Z,14.55
2019-04-25T04:02:51.067Z,14.58
2019-04-25T04:04:53.762Z,14.45
2019-04-25T04:06:55.395Z,14.55
2019-04-25T04:08:56.785Z,14.52
2019-04-25T04:10:58.208Z,14.24
2019-04-25T04:12:59.583Z,14.23
2019-04-25T04:15:00.984Z,14.20
2019-04-25T04:17:11.007Z,13.92
2019-04-25T04:19:14.745Z,13.80
2019-04-25T04:21:19.236Z,13.78
2019-04-25T04:23:23.219Z,13.84
2019-04-25T04:25:25.127Z,13.65
2019-04-25T04:27:26.595Z,13.59
2019-04-25T04:29:28.013Z,13.68
2019-04-25T04:31:29.414Z,13.59
2019-04-25T04:33:33.969Z,13.67
2019-04-25T04:35:34.238Z,13.81
2019-04-25T04:37:35.614Z,13.80
2019-04-25T04:39:37.028Z,13.78
2019-04-25T04:41:38.797Z,13.78
2019-04-25T04:43:40.163Z,13.92
2019-04-25T04:45:45.558Z,13.83
2019-04-25T04:47:47.236Z,13.89
2019-04-25T04:49:48.640Z,13.98
2019-04-25T04:51:50.047Z,13.93
2019-04-25T04:53:51.424Z,13.96
2019-04-25T04:55:54.316Z,13.96
2019-04-25T04:57:55.819Z,13.95
2019-04-25T04:59:57.220Z,13.88
2019-04-25T05:02:11.334Z,14.12
2019-04-25T05:04:17.754Z,14.17
2019-04-25T05:06:29.953Z,14.01
2019-04-25T05:08:33.871Z,14.03
2019-04-25T05:10:35.458Z,13.99
2019-04-25T05:12:37.016Z,13.94
2019-04-25T05:14:38.385Z,13.92
2019-04-25T05:16:39.793Z,14.05
2019-04-25T05:18:41.162Z,14.10
2019-04-25T05:20:43.988Z,14.11
2019-04-25T05:22:45.651Z,14.19
2019-04-25T05:24:47.052Z,14.24
2019-04-25T05:26:48.438Z,14.18
2019-04-25T05:28:49.836Z,14.28
2019-04-25T05:30:53.572Z,14.29
2019-04-25T05:32:55.013Z,14.41
2019-04-25T05:34:56.425Z,14.62
2019-04-25T05:36:57.795Z,14.65
2019-04-25T05:38:59.156Z,14.68
2019-04-25T05:41:03.977Z,14.65
2019-04-25T05:43:07.575Z,14.44
2019-04-25T05:45:09.691Z,14.23
2019-04-25T05:47:11.064Z,14.35
2019-04-25T05:49:13.816Z,14.32
2019-04-25T05:51:15.858Z,14.27
2019-04-25T05:53:17.756Z,14.22
2019-04-25T05:55:20.823Z,14.20
2019-04-25T05:57:23.922Z,14.24
2019-04-25T05:59:26.918Z,14.28
2019-04-25T06:01:30.105Z,14.24
2019-04-25T06:03:31.672Z,14.21
2019-04-25T06:05:33.623Z,13.96
2019-04-25T06:07:35.214Z,14.14
2019-04-25T06:09:38.524Z,14.31
2019-04-25T06:11:43.687Z,14.58
2019-04-25T06:13:46.981Z,14.52
2019-04-25T06:15:50.289Z,14.77
2019-04-25T06:17:55.461Z,14.90
2019-04-25T06:19:58.699Z,15.53
2019-04-25T06:22:00.095Z,16.47
2019-04-25T06:24:21.424Z,17.49
2019-04-25T06:26:33.410Z,18.30
2019-04-25T06:28:28.301Z,18.80
2019-04-25T06:30:31.574Z,19.31
2019-04-25T06:32:35.300Z,19.32
2019-04-25T06:34:36.583Z,18.92
2019-04-25T06:36:38.006Z,19.91
2019-04-25T06:38:39.413Z,19.78
2019-04-25T06:40:40.784Z,20.75
2019-04-25T06:42:43.545Z,20.79
2019-04-25T06:44:47.369Z,20.58
2019-04-25T06:46:50.641Z,20.48
2019-04-25T06:48:57.109Z,21.01
2019-04-25T06:50:58.479Z,21.90
2019-04-25T06:52:59.841Z,21.37
2019-04-25T06:55:01.341Z,21.46
2019-04-25T06:57:04.435Z,21.04
2019-04-25T06:59:06.097Z,21.87
2019-04-25T07:01:07.511Z,21.73
2019-04-25T07:03:09.075Z,22.02
2019-04-25T07:05:11.254Z,21.60
2019-04-25T07:07:14.843Z,21.94
2019-04-25T07:09:15.967Z,21.75
2019-04-25T07:11:17.358Z,21.21
2019-04-25T07:13:18.780Z,21.91
2019-04-25T07:15:20.647Z,21.66
2019-04-25T07:17:22.025Z,21.14
2019-04-25T07:19:25.961Z,21.77
2019-04-25T07:21:26.720Z,21.25
2019-04-25T07:23:28.245Z,21.60
2019-04-25T07:25:31.685Z,21.31
2019-04-25T07:27:35.629Z,22.07
2019-04-25T07:29:43.300Z,22.05
2019-04-25T07:31:49.831Z,22.34
2019-04-25T07:33:53.333Z,21.84
2019-04-25T07:35:56.876Z,21.91
2019-04-25T07:37:58.082Z,22.03
2019-04-25T07:39:59.712Z,22.34
2019-04-25T07:42:01.178Z,22.12
2019-04-25T07:44:04.253Z,22.12
2019-04-25T07:46:06.558Z,22.35
2019-04-25T07:48:07.971Z,22.41
2019-04-25T07:50:10.053Z,22.81
2019-04-25T07:52:13.404Z,23.12
2019-04-25T07:54:14.854Z,22.52
2019-04-25T07:56:16.224Z,21.74
2019-04-25T07:58:17.640Z,22.60
2019-04-25T08:00:19.917Z,22.61
2019-04-25T08:02:21.287Z,22.60
2019-04-25T08:04:23.622Z,22.51
2019-04-25T08:06:25.167Z,22.57
2019-04-25T08:08:28.103Z,22.52
2019-04-25T08:10:41.142Z,22.56
2019-04-25T08:12:44.413Z,22.23
2019-04-25T08:14:54.329Z,21.44
2019-04-25T08:17:00.678Z,21.08
2019-04-25T08:19:03.980Z,21.24
2019-04-25T08:21:05.631Z,21.49
2019-04-25T08:23:07.048Z,21.89
2019-04-25T08:25:09.761Z,22.13
2019-04-25T08:27:11.318Z,22.14
2019-04-25T08:29:13.298Z,22.35
2019-04-25T08:31:15.165Z,22.30
2019-04-25T08:33:16.595Z,22.58
2019-04-25T08:35:18.162Z,22.53
2019-04-25T08:37:21.143Z,22.67
2019-04-25T08:39:24.044Z,22.64
2019-04-25T08:41:25.886Z,23.19
2019-04-25T08:43:27.502Z,23.51
2019-04-25T08:45:28.876Z,23.57
2019-04-25T08:47:30.480Z,23.71
2019-04-25T08:49:34.985Z,23.96
2019-04-25T08:51:40.802Z,23.93
2019-04-25T08:53:45.068Z,23.90
2019-04-25T08:55:48.498Z,23.87
2019-04-25T08:57:54.583Z,23.92
2019-04-25T09:00:00.589Z,24.12
2019-04-25T09:02:23.415Z,23.82
2019-04-25T09:04:26.891Z,23.64
2019-04-25T09:06:28.317Z,23.80
2019-04-25T09:08:29.694Z,24.19
2019-04-25T09:10:31.192Z,24.17
2019-04-25T09:12:35.204Z,24.43
2019-04-25T09:14:36.909Z,24.44
2019-04-25T09:16:39.884Z,24.45
2019-04-25T09:18:41.432Z,24.36
2019-04-25T09:20:43.876Z,24.46
2019-04-25T09:22:46.163Z,24.81
2019-04-25T09:24:47.538Z,24.97
2019-04-25T09:26:48.942Z,25.33
2019-04-25T09:28:50.316Z,25.53
2019-04-25T09:30:51.692Z,25.28
2019-04-25T09:32:53.498Z,24.83
2019-04-25T09:34:55.520Z,25.11
2019-04-25T09:36:56.947Z,25.00
2019-04-25T09:39:00.258Z,25.26
2019-04-25T09:41:01.836Z,25.09
2019-04-25T09:43:03.605Z,25.40
2019-04-25T09:45:15.230Z,25.66
2019-04-25T09:47:16.773Z,25.52
2019-04-25T09:49:23.809Z,25.83
2019-04-25T09:51:27.234Z,25.81
2019-04-25T09:53:28.595Z,25.84
2019-04-25T09:55:35.974Z,25.52
2019-04-25T09:57:54.816Z,26.15
2019-04-25T09:59:56.179Z,26.22
2019-04-25T10:01:57.586Z,26.08
2019-04-25T10:03:58.997Z,26.32
2019-04-25T10:06:00.377Z,26.41
2019-04-25T10:08:03.379Z,26.32
2019-04-25T10:10:05.860Z,26.36
2019-04-25T10:12:07.264Z,26.29
2019-04-25T10:14:54.244Z,27.15
2019-04-25T10:16:55.959Z,26.91
2019-04-25T10:18:57.352Z,26.94
2019-04-25T10:20:59.036Z,26.90
2019-04-25T10:23:00.705Z,26.50
2019-04-25T10:25:04.183Z,26.22
2019-04-25T10:27:05.548Z,26.39
2019-04-25T10:29:07.150Z,26.42
2019-04-25T10:31:10.522Z,26.60
2019-04-25T10:33:14.214Z,26.75
2019-04-25T10:35:15.829Z,27.24
2019-04-25T10:37:17.299Z,27.26
2019-04-25T10:39:18.725Z,27.34
2019-04-25T10:41:20.692Z,27.16
2019-04-25T10:43:23.929Z,27.81
2019-04-25T10:45:26.134Z,27.88
2019-04-25T10:47:28.308Z,28.05
2019-04-25T10:49:29.719Z,28.04
2019-04-25T10:51:31.090Z,28.07
2019-04-25T10:53:33.828Z,28.00
2019-04-25T10:55:35.401Z,28.48
2019-04-25T10:57:36.770Z,28.57
2019-04-25T10:59:38.139Z,28.72
2019-04-25T11:01:40.289Z,28.08
2019-04-25T11:03:45.488Z,28.28
2019-04-25T11:05:47.581Z,28.42
2019-04-25T11:07:49.137Z,28.63
2019-04-25T11:09:51.330Z,28.12
2019-04-25T11:11:52.993Z,28.15
2019-04-25T11:13:55.797Z,28.13
2019-04-25T11:15:57.263Z,28.40
2019-04-25T11:17:58.650Z,28.58
2019-04-25T11:20:00.163Z,28.45
2019-04-25T11:22:04.004Z,28.22
2019-04-25T11:24:05.612Z,28.78
2019-04-25T11:26:07.020Z,29.12
2019-04-25T11:28:08.896Z,28.86
2019-04-25T11:30:11.592Z,29.13
2019-04-25T11:32:14.843Z,29.01
2019-04-25T11:34:16.990Z,29.63
2019-04-25T11:36:18.373Z,29.82
2019-04-25T11:38:23.683Z,29.83
2019-04-25T11:40:29.975Z,29.96
2019-04-25T11:42:31.580Z,29.78
2019-04-25T11:44:33.271Z,29.22
2019-04-25T11:46:39.222Z,29.72
2019-04-25T11:48:39.760Z,29.08
2019-04-25T11:50:41.367Z,29.65
2019-04-25T11:52:43.729Z,29.82
2019-04-25T11:54:46.729Z,29.45
2019-04-25T11:56:48.659Z,30.01
2019-04-25T11:58:50.677Z,29.23
2019-04-25T12:00:53.813Z,29.20
2019-04-25T12:02:56.084Z,29.81
2019-04-25T12:04:58.597Z,29.86
2019-04-25T12:06:59.969Z,29.89
2019-04-25T12:09:01.347Z,30.21
2019-04-25T12:11:03.057Z,30.07
2019-04-25T12:13:04.473Z,30.00
2019-04-25T12:15:06.281Z,30.00
2019-04-25T12:17:07.657Z,30.43
2019-04-25T12:19:09.069Z,30.00
2019-04-25T12:21:10.449Z,30.04
2019-04-25T12:23:11.955Z,30.13
2019-04-25T12:25:14.956Z,30.22
2019-04-25T12:27:16.518Z,30.37
2019-04-25T12:29:17.933Z,30.20
2019-04-25T12:31:19.307Z,29.66
2019-04-25T12:33:21.627Z,29.46
2019-04-25T12:35:24.227Z,29.69
2019-04-25T12:37:25.812Z,30.59
2019-04-25T12:39:28.286Z,29.82
2019-04-25T12:41:30.164Z,30.39
2019-04-25T12:43:33.894Z,30.62
2019-04-25T12:45:47.285Z,29.97
2019-04-25T12:47:50.834Z,29.74
2019-04-25T12:49:53.195Z,30.47
2019-04-25T12:51:56.700Z,30.72
2019-04-25T12:53:58.353Z,31.10
2019-04-25T12:55:59.740Z,30.83
2019-04-25T12:58:01.212Z,31.06
2019-04-25T13:00:04.540Z,31.09
2019-04-25T13:02:06.047Z,30.90
2019-04-25T13:04:08.026Z,30.02
2019-04-25T13:06:09.799Z,30.31
2019-04-25T13:08:11.174Z,30.47
2019-04-25T13:10:13.166Z,30.65
2019-04-25T13:12:15.962Z,30.53
2019-04-25T13:14:17.625Z,30.45
2019-04-25T13:16:19.128Z,30.91
2019-04-25T13:18:20.534Z,30.79
2019-04-25T13:20:21.942Z,30.49
2019-04-25T13:22:23.404Z,30.58
2019-04-25T13:24:24.827Z,30.67
2019-04-25T13:26:28.101Z,30.68
2019-04-25T13:28:48.180Z,30.27
2019-04-25T13:31:12.288Z,30.03
2019-04-25T13:33:17.598Z,30.35
2019-04-25T13:35:20.868Z,30.14
2019-04-25T13:37:24.069Z,30.23
2019-04-25T13:39:25.967Z,30.33
2019-04-25T13:41:27.370Z,30.21
2019-04-25T13:43:28.983Z,30.30
2019-04-25T13:45:30.363Z,30.19
2019-04-25T13:47:32.074Z,29.97
2019-04-25T13:49:33.536Z,29.75
2019-04-25T13:51:34.912Z,29.75
2019-04-25T13:53:36.484Z,29.24
2019-04-25T13:55:37.992Z,29.49
2019-04-25T13:57:39.398Z,29.21
2019-04-25T13:59:40.770Z,29.17
2019-04-25T14:01:42.225Z,29.66
2019-04-25T14:03:45.212Z,29.94
2019-04-25T14:05:46.591Z,29.85
2019-04-25T14:07:47.953Z,30.03
2019-04-25T14:09:49.350Z,29.94
2019-04-25T14:11:50.727Z,29.84
2019-04-25T14:13:52.091Z,29.90
2019-04-25T14:15:58.039Z,29.32
2019-04-25T14:18:13.824Z,29.44
2019-04-25T14:20:17.228Z,29.38
2019-04-25T14:22:18.599Z,29.69
2019-04-25T14:24:21.940Z,29.47
2019-04-25T14:26:24.982Z,29.82
2019-04-25T14:28:29.378Z,29.80
2019-04-25T14:30:30.855Z,29.71
2019-04-25T14:32:33.885Z,29.65
2019-04-25T14:34:35.523Z,29.65
2019-04-25T14:36:36.894Z,29.77
2019-04-25T14:38:38.303Z,29.51
2019-04-25T14:40:42.141Z,29.47
2019-04-25T14:42:42.943Z,29.66
2019-04-25T14:44:44.351Z,29.64
2019-04-25T14:46:45.720Z,29.65
2019-04-25T14:48:47.095Z,29.79
2019-04-25T14:50:48.498Z,29.83
2019-04-25T14:52:50.000Z,29.78
2019-04-25T14:54:53.267Z,29.74
2019-04-25T14:56:56.542Z,29.53
2019-04-25T14:58:57.941Z,29.44
2019-04-25T15:00:59.369Z,29.49
2019-04-25T15:03:00.851Z,29.86
2019-04-25T15:05:04.726Z,29.78
2019-04-25T15:07:06.090Z,29.49
2019-04-25T15:09:07.562Z,29.23
2019-04-25T15:11:08.935Z,29.17
2019-04-25T15:13:10.937Z,28.81
2019-04-25T15:15:12.641Z,28.92
2019-04-25T15:17:14.245Z,29.00
2019-04-25T15:19:15.628Z,28.89
2019-04-25T15:21:18.720Z,28.92
2019-04-25T15:23:20.308Z,28.74
2019-04-25T15:25:21.801Z,28.92
2019-04-25T15:27:24.981Z,28.62
2019-04-25T15:29:26.681Z,28.91
2019-04-25T15:31:30.046Z,28.84
2019-04-25T15:33:31.657Z,28.87
2019-04-25T15:35:37.844Z,28.77
2019-04-25T15:37:44.085Z,28.86
2019-04-25T15:39:53.308Z,28.91
2019-04-25T15:42:14.575Z,28.56
2019-04-25T15:44:35.322Z,28.74
2019-04-25T15:46:42.014Z,28.54
2019-04-25T15:48:43.419Z,28.56
2019-04-25T15:50:44.991Z,28.78
2019-04-25T15:52:46.514Z,28.58
2019-04-25T15:54:48.015Z,28.57
2019-04-25T15:56:49.470Z,28.35
2019-04-25T15:58:50.921Z,28.16
2019-04-25T16:00:52.321Z,28.65
2019-04-25T16:02:53.690Z,28.37
2019-04-25T16:04:55.225Z,28.18
2019-04-25T16:06:56.593Z,28.26
2019-04-25T16:08:57.963Z,28.34
2019-04-25T16:10:59.574Z,28.17
2019-04-25T16:13:00.948Z,28.09
2019-04-25T16:15:06.072Z,28.08
2019-04-25T16:17:07.549Z,28.10
2019-04-25T16:19:09.324Z,28.01
2019-04-25T16:21:10.727Z,28.05
2019-04-25T16:23:12.194Z,28.24
2019-04-25T16:25:13.566Z,28.43
2019-04-25T16:27:15.072Z,28.25
2019-04-25T16:29:16.486Z,28.07
2019-04-25T16:31:19.757Z,28.18
2019-04-25T16:33:21.157Z,28.17
2019-04-25T16:35:22.521Z,28.18
2019-04-25T16:37:23.933Z,28.22
2019-04-25T16:39:27.208Z,28.53
2019-04-25T16:41:29.018Z,28.30
2019-04-25T16:43:32.418Z,28.45
2019-04-25T16:45:35.527Z,28.25
2019-04-25T16:47:37.387Z,27.94
2019-04-25T16:49:39.157Z,27.76
2019-04-25T16:51:40.696Z,27.61
2019-04-25T16:53:42.281Z,27.79
2019-04-25T16:55:43.731Z,27.65
2019-04-25T16:57:45.156Z,27.45
2019-04-25T16:59:46.570Z,27.29
2019-04-25T17:01:48.242Z,27.13
2019-04-25T17:03:49.650Z,27.15
2019-04-25T17:05:51.144Z,26.85
2019-04-25T17:07:52.511Z,26.81
2019-04-25T17:09:53.916Z,26.67
2019-04-25T17:11:56.940Z,26.57
2019-04-25T17:14:03.094Z,26.38
2019-04-25T17:16:15.057Z,26.40
2019-04-25T17:18:18.336Z,26.33
2019-04-25T17:20:24.274Z,26.31
2019-04-25T17:22:25.644Z,26.28
2019-04-25T17:24:27.049Z,26.17
2019-04-25T17:26:28.969Z,26.16
2019-04-25T17:28:32.707Z,26.16
2019-04-25T17:30:35.986Z,26.39
2019-04-25T17:32:52.725Z,26.21
2019-04-25T17:34:56.877Z,25.92
2019-04-25T17:37:12.398Z,25.64
2019-04-25T17:39:19.608Z,25.58
2019-04-25T17:41:21.079Z,25.66
2019-04-25T17:43:22.488Z,25.49
2019-04-25T17:45:25.790Z,25.37
2019-04-25T17:47:27.156Z,25.31
2019-04-25T17:49:28.558Z,25.39
2019-04-25T17:51:30.227Z,25.21
2019-04-25T17:53:32.939Z,25.27
2019-04-25T17:55:35.038Z,25.07
2019-04-25T17:57:36.620Z,25.15
2019-04-25T17:59:39.147Z,24.99
2019-04-25T18:01:40.730Z,24.85
2019-04-25T18:03:42.191Z,24.66
2019-04-25T18:05:44.005Z,24.61
2019-04-25T18:07:45.573Z,24.39
2019-04-25T18:09:46.990Z,24.35
2019-04-25T18:11:48.404Z,24.27
2019-04-25T18:13:50.004Z,24.17
2019-04-25T18:15:53.275Z,23.84
2019-04-25T18:17:54.848Z,23.69
2019-04-25T18:19:58.146Z,23.53
2019-04-25T18:22:10.565Z,23.66
2019-04-25T18:24:30.495Z,23.61
2019-04-25T18:26:35.249Z,23.33
2019-04-25T18:28:41.846Z,23.20
2019-04-25T18:30:44.214Z,23.14
2019-04-25T18:32:53.639Z,23.17
2019-04-25T18:34:56.918Z,22.93
2019-04-25T18:37:03.260Z,23.01
2019-04-25T18:39:16.481Z,23.17
2019-04-25T18:41:19.773Z,23.04
2019-04-25T18:43:23.079Z,23.31
2019-04-25T18:45:26.352Z,22.94
2019-04-25T18:47:27.753Z,22.94
2019-04-25T18:49:29.132Z,22.87
2019-04-25T18:51:30.538Z,22.70
2019-04-25T18:53:37.709Z,22.82
2019-04-25T18:55:50.193Z,22.74
2019-04-25T18:58:05.610Z,22.86
2019-04-25T19:00:18.973Z,22.65
2019-04-25T19:02:39.756Z,22.31
2019-04-25T19:05:00.008Z,22.10
2019-04-25T19:07:01.418Z,22.05
2019-04-25T19:09:08.534Z,22.35
2019-04-25T19:11:10.046Z,22.01
2019-04-25T19:13:12.782Z,21.86
2019-04-25T19:15:15.349Z,22.04
2019-04-25T19:17:16.727Z,21.90
2019-04-25T19:19:18.094Z,21.72
2019-04-25T19:21:19.502Z,21.60
2019-04-25T19:23:20.915Z,21.60
2019-04-25T19:25:22.283Z,21.54
2019-04-25T19:27:24.285Z,21.51
2019-04-25T19:29:25.967Z,21.63
2019-04-25T19:31:27.479Z,21.60
2019-04-25T19:33:35.544Z,21.52
2019-04-25T19:35:33.667Z,21.51
2019-04-25T19:37:35.071Z,21.32
2019-04-25T19:39:38.383Z,21.28
2019-04-25T19:41:41.660Z,21.13
2019-04-25T19:43:44.972Z,20.91
2019-04-25T19:45:46.943Z,20.75
2019-04-25T19:47:49.274Z,20.70
2019-04-25T19:49:51.738Z,20.68
2019-04-25T19:51:53.301Z,21.00
2019-04-25T19:53:54.662Z,20.74
2019-04-25T19:55:56.218Z,20.67
2019-04-25T19:57:57.579Z,20.80
2019-04-25T19:59:58.961Z,20.72
2019-04-25T20:02:02.261Z,20.97
2019-04-25T20:04:11.679Z,20.99
2019-04-25T20:06:26.902Z,21.08
2019-04-25T20:08:42.462Z,20.71
2019-04-25T20:10:49.453Z,20.75
2019-04-25T20:12:53.405Z,20.96
2019-04-25T20:14:54.931Z,20.68
2019-04-25T20:16:56.305Z,20.84
2019-04-25T20:18:57.730Z,20.67
2019-04-25T20:20:59.101Z,20.67
2019-04-25T20:23:00.480Z,20.74
2019-04-25T20:25:03.426Z,20.88
2019-04-25T20:27:04.832Z,20.77
2019-04-25T20:29:06.207Z,20.67
2019-04-25T20:31:07.641Z,20.91
2019-04-25T20:33:09.210Z,20.79
2019-04-25T20:35:10.789Z,21.11
2019-04-25T20:37:12.162Z,20.90
2019-04-25T20:39:13.763Z,20.86
2019-04-25T20:41:15.173Z,20.72
2019-04-25T20:43:16.646Z,21.03
2019-04-25T20:45:18.251Z,21.02
2019-04-25T20:47:19.621Z,20.89
2019-04-25T20:49:21.230Z,20.66
2019-04-25T20:51:22.595Z,20.64
2019-04-25T20:53:24.062Z,20.77
2019-04-25T20:55:25.481Z,20.42
2019-04-25T20:57:26.854Z,20.88
2019-04-25T20:59:28.269Z,20.65
2019-04-25T21:01:29.888Z,20.85
2019-04-25T21:03:31.267Z,20.79
2019-04-25T21:05:32.635Z,20.67
2019-04-25T21:07:34.052Z,20.60
2019-04-25T21:09:35.824Z,20.42
2019-04-25T21:11:37.423Z,20.32
2019-04-25T21:13:43.722Z,20.45
2019-04-25T21:15:47.099Z,20.27
2019-04-25T21:17:54.174Z,20.40
2019-04-25T21:19:58.437Z,20.30
2019-04-25T21:22:00.984Z,20.38
2019-04-25T21:24:02.646Z,20.27
2019-04-25T21:26:04.050Z,20.38
2019-04-25T21:28:05.527Z,20.47
2019-04-25T21:30:08.900Z,20.55
2019-04-25T21:32:10.399Z,20.67
2019-04-25T21:34:11.771Z,20.47
2019-04-25T21:36:13.474Z,20.55
2019-04-25T21:38:15.521Z,20.52
2019-04-25T21:40:25.192Z,20.37
2019-04-25T21:42:28.720Z,20.39
2019-04-25T21:44:30.395Z,20.51
2019-04-25T21:46:31.816Z,20.40
2019-04-25T21:48:33.481Z,20.20
2019-04-25T21:50:35.166Z,19.96
2019-04-25T21:52:37.001Z,19.98
2019-04-25T21:54:38.789Z,20.30
2019-04-25T21:56:40.352Z,20.16
2019-04-25T21:58:42.155Z,20.15
2019-04-25T22:00:45.629Z,20.16
2019-04-25T22:02:47.405Z,20.11
2019-04-25T22:04:49.002Z,20.01
2019-04-25T22:06:50.586Z,19.93
2019-04-25T22:08:52.255Z,19.80
2019-04-25T22:10:55.801Z,19.93
2019-04-25T22:13:10.531Z,20.04
2019-04-25T22:15:01.460Z,19.91
2019-04-25T22:17:03.910Z,19.96
2019-04-25T22:19:06.409Z,19.85
2019-04-25T22:21:08.200Z,19.69
2019-04-25T22:23:09.899Z,19.82
2019-04-25T22:25:12.002Z,19.99
2019-04-25T22:27:15.271Z,19.92
2019-04-25T22:29:16.726Z,20.24
2019-04-25T22:31:20.075Z,20.21
2019-04-25T22:33:32.254Z,19.93
2019-04-25T22:35:41.676Z,19.95
2019-04-25T22:37:43.377Z,19.83
2019-04-25T22:39:44.797Z,19.82
2019-04-25T22:41:47.519Z,19.88
2019-04-25T22:43:51.390Z,19.77
2019-04-25T22:45:53.313Z,19.61
2019-04-25T22:47:54.979Z,19.53
2019-04-25T22:49:56.652Z,19.45
2019-04-25T22:51:58.361Z,19.54
2019-04-25T22:53:59.924Z,19.68
2019-04-25T22:56:01.805Z,19.50
2019-04-25T22:58:03.722Z,19.35
2019-04-25T23:00:09.154Z,19.47
2019-04-25T23:02:18.475Z,19.52
2019-04-25T23:04:22.180Z,19.57
2019-04-25T23:06:23.676Z,19.37
2019-04-25T23:08:25.044Z,19.34
2019-04-25T23:10:26.414Z,19.40
2019-04-25T23:12:27.817Z,19.37
2019-04-25T23:14:29.190Z,19.39
2019-04-25T23:16:30.595Z,19.24
2019-04-25T23:18:32.005Z,19.07
2019-04-25T23:20:33.373Z,18.88
2019-04-25T23:22:34.784Z,18.91
2019-04-25T23:24:38.452Z,18.93
2019-04-25T23:26:58.540Z,18.83
2019-04-25T23:29:01.844Z,18.95
2019-04-25T23:31:20.411Z,18.73
2019-04-25T23:33:21.775Z,18.63
2019-04-25T23:35:29.971Z,18.67
2019-04-25T23:37:26.854Z,18.54
2019-04-25T23:39:28.520Z,18.72
2019-04-25T23:41:29.984Z,18.84
2019-04-25T23:43:31.348Z,18.82
2019-04-25T23:45:32.720Z,18.57
2019-04-25T23:47:34.121Z,18.78
2019-04-25T23:49:35.886Z,18.51
2019-04-25T23:51:37.763Z,18.47
2019-04-25T23:53:39.167Z,18.63
2019-04-25T23:55:40.532Z,18.47
2019-04-25T23:57:41.901Z,18.37
2019-04-25T23:59:43.302Z,18.22
